createdAt,value
2022-12-15T00:00:04.906Z,23.98
2022-12-15T00:02:25.547Z,24.02
2022-12-15T00:04:45.893Z,26.48
2022-12-15T00:07:06.386Z,27.48
2022-12-15T00:09:30.798Z,27.42
2022-12-15T00:11:51.474Z,25.38
2022-12-15T00:14:12.260Z,26.88
2022-12-15T00:16:32.957Z,24.92
2022-12-15T00:18:53.389Z,26.98
2022-12-15T00:21:17.528Z,29.95
2022-12-15T00:23:37.965Z,31.27
2022-12-15T00:25:58.363Z,34.97
2022-12-15T00:28:18.845Z,34.40
2022-12-15T00:30:39.453Z,36.03
2022-12-15T00:33:00.007Z,35.72
2022-12-15T00:35:20.487Z,35.78
2022-12-15T00:37:41.129Z,36.15
2022-12-15T00:39:42.956Z,40.20
2022-12-15T00:41:44.699Z,41.20
2022-12-15T00:43:46.810Z,38.97
2022-12-15T00:46:06.925Z,40.55
2022-12-15T00:48:08.657Z,42.65
2022-12-15T00:50:29.171Z,41.30
2022-12-15T00:52:49.689Z,43.63
2022-12-15T00:55:10.145Z,41.28
2022-12-15T00:57:30.744Z,43.92
2022-12-15T00:59:51.327Z,40.05
2022-12-15T01:02:11.730Z,40.67
2022-12-15T01:04:32.055Z,45.13
2022-12-15T01:06:52.656Z,42.67
2022-12-15T01:09:13.389Z,42.95
2022-12-15T01:11:33.526Z,42.20
2022-12-15T01:13:54.203Z,42.17
2022-12-15T01:16:14.772Z,45.33
2022-12-15T01:18:35.721Z,42.42
2022-12-15T01:20:37.613Z,44.47
2022-12-15T01:22:40.580Z,40.53
2022-12-15T01:24:42.495Z,43.03
2022-12-15T01:26:44.173Z,42.55
2022-12-15T01:28:45.930Z,44.20
2022-12-15T01:30:48.166Z,44.67
2022-12-15T01:32:50.363Z,44.03
2022-12-15T01:34:52.136Z,41.60
2022-12-15T01:36:53.999Z,44.35
2022-12-15T01:38:55.752Z,44.40
2022-12-15T01:41:07.865Z,43.08
2022-12-15T01:43:32.392Z,43.92
2022-12-15T01:45:46.859Z,41.70
2022-12-15T01:47:48.679Z,43.78
2022-12-15T01:49:51.514Z,41.83
2022-12-15T01:51:58.435Z,45.35
2022-12-15T01:54:15.751Z,41.90
2022-12-15T01:56:19.705Z,41.75
2022-12-15T01:58:22.752Z,42.83
2022-12-15T02:00:24.528Z,43.55
2022-12-15T02:02:32.357Z,40.50
2022-12-15T02:04:37.929Z,44.17
2022-12-15T02:06:39.828Z,41.00
2022-12-15T02:08:45.022Z,38.90
2022-12-15T02:11:05.141Z,43.55
2022-12-15T02:13:32.164Z,45.75
2022-12-15T02:15:41.856Z,39.78
2022-12-15T02:18:10.878Z,42.35
2022-12-15T02:20:37.828Z,47.78
2022-12-15T02:23:16.684Z,46.50
2022-12-15T02:25:50.798Z,46.22
2022-12-15T02:28:16.222Z,43.63
2022-12-15T02:30:26.538Z,42.95
2022-12-15T02:32:37.170Z,41.45
2022-12-15T02:34:41.976Z,43.00
2022-12-15T02:36:48.607Z,42.78
2022-12-15T02:38:50.555Z,46.90
2022-12-15T02:40:58.651Z,43.38
2022-12-15T02:43:04.173Z,40.28
2022-12-15T02:45:12.849Z,43.05
2022-12-15T02:47:33.263Z,44.63
2022-12-15T02:49:56.969Z,42.97
2022-12-15T02:52:07.592Z,43.10
2022-12-15T02:54:21.886Z,41.58
2022-12-15T02:57:11.475Z,41.63
2022-12-15T02:59:34.007Z,43.05
2022-12-15T03:02:03.804Z,39.00
2022-12-15T03:04:08.154Z,42.30
2022-12-15T03:06:10.114Z,40.88
2022-12-15T03:08:11.849Z,41.30
2022-12-15T03:10:15.215Z,39.27
2022-12-15T03:12:16.972Z,42.42
2022-12-15T03:14:18.770Z,41.80
2022-12-15T03:16:20.916Z,40.40
2022-12-15T03:18:22.737Z,38.95
2022-12-15T03:20:24.483Z,34.13
2022-12-15T03:22:26.336Z,36.53
2022-12-15T03:24:28.028Z,34.70
2022-12-15T03:26:29.762Z,36.33
2022-12-15T03:28:31.487Z,35.83
2022-12-15T03:30:33.295Z,37.63
2022-12-15T03:32:35.019Z,38.67
2022-12-15T03:34:36.773Z,35.85
2022-12-15T03:36:38.626Z,33.38
2022-12-15T03:38:40.401Z,40.00
2022-12-15T03:40:42.380Z,40.33
2022-12-15T03:42:48.464Z,35.13
2022-12-15T03:44:50.179Z,37.90
2022-12-15T03:46:51.985Z,36.47
2022-12-15T03:48:54.391Z,34.22
2022-12-15T03:50:56.156Z,36.90
2022-12-15T03:53:00.384Z,36.50
2022-12-15T03:55:03.483Z,38.60
2022-12-15T03:57:05.194Z,38.95
2022-12-15T03:59:06.984Z,40.00
2022-12-15T04:01:13.990Z,37.72
2022-12-15T04:03:16.152Z,40.03
2022-12-15T04:05:26.213Z,42.38
2022-12-15T04:07:27.977Z,40.17
2022-12-15T04:09:29.781Z,39.95
2022-12-15T04:11:31.526Z,37.55
2022-12-15T04:13:33.580Z,38.65
2022-12-15T04:15:38.033Z,40.33
2022-12-15T04:17:40.253Z,42.22
2022-12-15T04:20:00.693Z,42.53
2022-12-15T04:22:03.633Z,44.13
2022-12-15T04:24:24.433Z,44.20
2022-12-15T04:26:44.966Z,44.15
2022-12-15T04:29:05.145Z,41.05
2022-12-15T04:31:29.753Z,45.30
2022-12-15T04:33:51.112Z,45.60
2022-12-15T04:36:11.509Z,42.45
2022-12-15T04:38:31.859Z,41.38
2022-12-15T04:40:52.073Z,43.85
2022-12-15T04:43:12.664Z,44.33
2022-12-15T04:45:35.371Z,44.22
2022-12-15T04:47:55.618Z,42.10
2022-12-15T04:50:16.032Z,43.03
2022-12-15T04:52:36.407Z,43.90
2022-12-15T04:54:56.383Z,44.22
2022-12-15T04:57:16.733Z,45.75
2022-12-15T04:59:37.595Z,40.88
2022-12-15T05:01:57.941Z,46.53
2022-12-15T05:04:18.516Z,42.47
2022-12-15T05:06:38.929Z,45.92
2022-12-15T05:08:59.175Z,41.78
2022-12-15T05:11:19.713Z,47.08
2022-12-15T05:13:40.422Z,43.55
2022-12-15T05:16:01.024Z,44.53
2022-12-15T05:18:21.652Z,46.92
2022-12-15T05:20:42.299Z,47.30
2022-12-15T05:23:02.699Z,47.47
2022-12-15T05:25:23.494Z,45.38
2022-12-15T05:27:43.596Z,49.38
2022-12-15T05:30:04.138Z,46.90
2022-12-15T05:32:06.667Z,48.00
2022-12-15T05:36:10.059Z,46.42
2022-12-15T05:38:11.867Z,47.15
2022-12-15T05:40:13.705Z,51.97
2022-12-15T05:42:15.491Z,46.08
2022-12-15T05:44:17.476Z,46.53
2022-12-15T05:46:19.743Z,50.50
2022-12-15T05:48:21.598Z,49.20
2022-12-15T05:50:23.574Z,52.47
2022-12-15T05:52:25.372Z,49.35
2022-12-15T05:54:27.255Z,51.40
2022-12-15T05:56:29.582Z,50.00
2022-12-15T05:58:31.614Z,48.05
2022-12-15T06:00:33.938Z,49.83
2022-12-15T06:02:35.681Z,51.53
2022-12-15T06:04:37.541Z,51.88
2022-12-15T06:06:40.088Z,49.85
2022-12-15T06:10:43.971Z,49.40
2022-12-15T06:12:45.777Z,47.83
2022-12-15T06:14:47.506Z,45.97
2022-12-15T06:16:51.928Z,48.38
2022-12-15T06:18:56.268Z,48.92
2022-12-15T06:21:00.640Z,46.75
2022-12-15T06:23:02.375Z,46.45
2022-12-15T06:25:04.438Z,50.42
2022-12-15T06:27:06.157Z,47.67
2022-12-15T06:29:10.648Z,48.60
2022-12-15T06:31:13.555Z,51.08
2022-12-15T06:33:15.416Z,47.83
2022-12-15T06:35:17.131Z,48.08
2022-12-15T06:37:18.896Z,34.65
2022-12-15T06:39:20.700Z,50.80
2022-12-15T06:41:22.933Z,46.05
2022-12-15T06:43:25.242Z,46.08
2022-12-15T06:45:27.037Z,47.90
2022-12-15T06:47:28.769Z,44.92
2022-12-15T06:49:30.518Z,47.15
2022-12-15T06:51:32.778Z,52.65
2022-12-15T06:53:38.066Z,48.28
2022-12-15T06:55:40.298Z,51.78
2022-12-15T06:57:42.115Z,51.15
2022-12-15T06:59:43.995Z,50.00
2022-12-15T07:01:46.192Z,51.38
2022-12-15T07:03:48.540Z,51.85
2022-12-15T07:06:04.866Z,53.33
2022-12-15T07:08:06.915Z,52.78
2022-12-15T07:10:09.231Z,52.88
2022-12-15T07:12:12.710Z,49.30
2022-12-15T07:14:14.489Z,51.88
2022-12-15T07:16:16.556Z,53.05
2022-12-15T07:18:18.684Z,53.28
2022-12-15T07:20:25.531Z,58.65
2022-12-15T07:22:30.448Z,49.60
2022-12-15T07:24:32.178Z,51.03
2022-12-15T07:26:34.304Z,55.90
2022-12-15T07:28:38.803Z,57.42
2022-12-15T07:30:40.557Z,52.40
2022-12-15T07:32:44.202Z,45.67
2022-12-15T07:34:52.019Z,51.20
2022-12-15T07:36:53.736Z,54.05
2022-12-15T07:39:02.865Z,51.80
2022-12-15T07:41:06.804Z,52.45
2022-12-15T07:43:08.603Z,50.33
2022-12-15T07:45:11.167Z,47.50
2022-12-15T07:49:15.141Z,52.40
2022-12-15T07:51:19.842Z,51.83
2022-12-15T07:53:21.941Z,54.70
2022-12-15T07:55:43.348Z,48.58
2022-12-15T07:57:47.690Z,50.05
2022-12-15T07:59:50.573Z,52.30
2022-12-15T08:01:53.700Z,51.05
2022-12-15T08:03:55.619Z,49.72
2022-12-15T08:06:03.624Z,55.08
2022-12-15T08:08:08.513Z,52.47
2022-12-15T08:10:13.978Z,53.58
2022-12-15T08:12:17.303Z,56.63
2022-12-15T08:14:19.597Z,49.35
2022-12-15T08:16:21.893Z,53.88
2022-12-15T08:18:23.674Z,52.30
2022-12-15T08:20:25.778Z,47.58
2022-12-15T08:22:27.550Z,51.28
2022-12-15T08:24:29.273Z,50.63
2022-12-15T08:26:31.710Z,50.90
2022-12-15T08:30:38.890Z,54.53
2022-12-15T08:32:40.647Z,52.97
2022-12-15T08:34:42.730Z,52.85
2022-12-15T08:36:44.515Z,54.00
2022-12-15T08:38:47.458Z,56.88
2022-12-15T08:40:49.213Z,52.50
2022-12-15T08:42:51.034Z,53.25
2022-12-15T08:44:52.748Z,54.42
2022-12-15T08:46:54.554Z,52.45
2022-12-15T08:48:56.698Z,53.53
2022-12-15T08:50:59.893Z,56.25
2022-12-15T08:53:29.702Z,55.58
2022-12-15T08:55:25.376Z,55.50
2022-12-15T08:57:27.405Z,56.13
2022-12-15T08:59:29.166Z,53.85
2022-12-15T09:01:32.686Z,54.95
2022-12-15T09:03:35.707Z,56.42
2022-12-15T09:05:39.090Z,53.83
2022-12-15T09:07:40.827Z,54.13
2022-12-15T09:09:43.146Z,56.35
2022-12-15T09:11:45.009Z,58.53
2022-12-15T09:13:46.811Z,56.72
2022-12-15T09:16:14.917Z,55.22
2022-12-15T09:18:16.654Z,55.42
2022-12-15T09:20:18.488Z,56.45
2022-12-15T09:22:20.298Z,62.85
2022-12-15T09:24:32.282Z,59.63
2022-12-15T09:26:36.296Z,51.97
2022-12-15T09:28:38.964Z,52.97
2022-12-15T09:30:40.810Z,58.33
2022-12-15T09:32:42.632Z,57.80
2022-12-15T09:34:44.351Z,56.20
2022-12-15T09:36:46.057Z,52.80
2022-12-15T09:38:48.396Z,56.15
2022-12-15T09:40:50.226Z,57.75
2022-12-15T09:43:05.016Z,58.97
2022-12-15T09:45:21.240Z,57.75
2022-12-15T09:47:40.543Z,53.90
2022-12-15T09:49:55.994Z,59.05
2022-12-15T09:52:17.183Z,55.05
2022-12-15T09:54:21.333Z,55.65
2022-12-15T09:56:34.305Z,52.55
2022-12-15T09:58:52.313Z,53.72
2022-12-15T10:01:04.574Z,50.85
2022-12-15T10:03:15.298Z,44.55
2022-12-15T10:06:06.823Z,48.92
2022-12-15T10:08:02.980Z,55.22
2022-12-15T10:10:15.396Z,53.25
2022-12-15T10:12:30.660Z,52.55
2022-12-15T10:14:57.929Z,52.08
2022-12-15T10:17:24.027Z,50.45
2022-12-15T10:20:04.051Z,49.60
2022-12-15T10:22:06.139Z,54.20
2022-12-15T10:24:37.481Z,55.35
2022-12-15T10:26:43.191Z,47.50
2022-12-15T10:28:59.871Z,53.35
2022-12-15T10:31:35.088Z,51.42
2022-12-15T10:33:39.858Z,51.80
2022-12-15T10:35:44.056Z,50.22
2022-12-15T10:37:46.110Z,51.92
2022-12-15T10:39:50.444Z,49.50
2022-12-15T10:42:29.749Z,48.05
2022-12-15T10:44:37.799Z,49.80
2022-12-15T10:46:39.958Z,48.97
2022-12-15T10:48:58.427Z,50.35
2022-12-15T10:51:32.739Z,51.92
2022-12-15T10:54:06.712Z,49.45
2022-12-15T10:56:09.332Z,47.15
2022-12-15T11:00:30.113Z,43.55
2022-12-15T11:02:34.246Z,46.25
2022-12-15T11:04:36.422Z,47.78
2022-12-15T11:06:42.406Z,50.50
2022-12-15T11:08:45.142Z,51.58
2022-12-15T11:11:14.433Z,49.58
2022-12-15T11:13:21.693Z,48.75
2022-12-15T11:15:23.410Z,50.47
2022-12-15T11:17:25.254Z,50.13
2022-12-15T11:19:39.550Z,48.08
2022-12-15T11:21:51.914Z,47.85
2022-12-15T11:24:04.336Z,48.80
2022-12-15T11:26:24.331Z,46.80
2022-12-15T11:28:43.895Z,48.60
2022-12-15T11:30:55.738Z,50.15
2022-12-15T11:33:00.148Z,48.00
2022-12-15T11:35:02.270Z,51.97
2022-12-15T11:37:04.096Z,46.67
2022-12-15T11:39:16.156Z,50.50
2022-12-15T11:41:35.590Z,48.20
2022-12-15T11:44:01.029Z,46.55
2022-12-15T11:46:08.980Z,51.30
2022-12-15T11:48:22.430Z,47.25
2022-12-15T11:50:33.359Z,50.20
2022-12-15T11:52:54.519Z,50.40
2022-12-15T11:55:12.790Z,53.60
2022-12-15T11:57:32.775Z,46.88
2022-12-15T12:00:03.263Z,47.13
2022-12-15T12:02:32.186Z,50.28
2022-12-15T12:04:59.317Z,47.38
2022-12-15T12:07:41.552Z,44.83
2022-12-15T12:10:21.497Z,42.50
2022-12-15T12:12:30.625Z,44.20
2022-12-15T12:14:51.329Z,46.38
2022-12-15T12:17:01.845Z,45.75
2022-12-15T12:19:18.588Z,42.85
2022-12-15T12:21:26.608Z,51.78
2022-12-15T12:23:40.518Z,47.35
2022-12-15T12:26:04.057Z,48.88
2022-12-15T12:28:29.828Z,51.08
2022-12-15T12:30:42.635Z,50.00
2022-12-15T12:32:50.586Z,46.83
2022-12-15T12:37:49.558Z,43.25
2022-12-15T12:39:54.078Z,43.50
2022-12-15T12:42:10.088Z,45.45
2022-12-15T12:44:32.237Z,43.65
2022-12-15T12:46:40.574Z,41.03
2022-12-15T12:48:52.118Z,43.40
2022-12-15T12:51:11.020Z,43.88
2022-12-15T12:53:35.239Z,41.70
2022-12-15T12:55:42.216Z,44.15
2022-12-15T12:57:45.256Z,39.28
2022-12-15T12:59:58.029Z,42.50
2022-12-15T13:02:24.659Z,44.30
2022-12-15T13:04:29.698Z,44.78
2022-12-15T13:06:34.791Z,44.30
2022-12-15T13:08:52.040Z,43.35
2022-12-15T13:10:55.375Z,45.10
2022-12-15T13:12:59.313Z,44.13
2022-12-15T13:15:10.571Z,47.42
2022-12-15T13:17:28.523Z,47.00
2022-12-15T13:20:01.999Z,48.22
2022-12-15T13:24:05.540Z,50.20
2022-12-15T13:26:07.244Z,49.75
2022-12-15T13:28:22.668Z,51.53
2022-12-15T13:30:25.028Z,57.35
2022-12-15T13:32:40.127Z,63.33
2022-12-15T13:34:44.052Z,68.15
2022-12-15T13:36:55.531Z,73.13
2022-12-15T13:38:57.560Z,69.18
2022-12-15T13:40:59.271Z,71.13
2022-12-15T13:43:04.139Z,67.77
2022-12-15T13:45:18.286Z,67.55
2022-12-15T13:47:29.973Z,67.65
2022-12-15T13:49:43.209Z,68.57
2022-12-15T13:51:51.548Z,68.95
2022-12-15T13:54:09.936Z,66.63
2022-12-15T13:56:11.609Z,70.15
2022-12-15T13:58:16.396Z,69.33
2022-12-15T14:00:21.540Z,72.82
2022-12-15T14:02:29.127Z,76.88
2022-12-15T14:04:30.889Z,75.93
2022-12-15T14:06:38.677Z,73.78
2022-12-15T14:08:41.458Z,69.18
2022-12-15T14:10:57.053Z,71.55
2022-12-15T14:13:15.416Z,65.55
2022-12-15T14:15:20.105Z,69.57
2022-12-15T14:17:22.476Z,68.53
2022-12-15T14:19:24.631Z,67.95
2022-12-15T14:21:26.996Z,66.35
2022-12-15T14:23:40.369Z,60.95
2022-12-15T14:25:53.176Z,67.18
2022-12-15T14:30:35.544Z,63.55
2022-12-15T14:32:37.698Z,65.55
2022-12-15T14:34:41.891Z,69.18
2022-12-15T14:36:44.546Z,64.32
2022-12-15T14:38:53.203Z,66.90
2022-12-15T14:40:58.137Z,68.55
2022-12-15T14:43:00.151Z,63.58
2022-12-15T14:45:01.928Z,61.72
2022-12-15T14:47:07.220Z,46.83
2022-12-15T14:49:23.789Z,63.28
2022-12-15T14:51:28.324Z,62.58
2022-12-15T14:53:39.931Z,58.35
2022-12-15T14:55:41.750Z,65.13
2022-12-15T14:57:47.612Z,64.43
2022-12-15T14:59:51.318Z,63.83
2022-12-15T15:01:59.609Z,61.22
2022-12-15T15:03:12.825Z,46.55
2022-12-15T15:04:06.575Z,60.70
2022-12-15T15:06:11.137Z,62.80
2022-12-15T15:08:24.060Z,62.70
2022-12-15T15:10:30.034Z,61.03
2022-12-15T15:12:45.291Z,58.40
2022-12-15T15:15:03.017Z,58.30
2022-12-15T15:17:21.227Z,57.30
2022-12-15T15:19:23.094Z,62.38
2022-12-15T15:21:28.373Z,63.75
2022-12-15T15:23:30.499Z,55.50
2022-12-15T15:25:40.679Z,66.57
2022-12-15T15:27:42.777Z,60.03
2022-12-15T15:29:44.599Z,67.60
2022-12-15T15:31:46.586Z,64.60
2022-12-15T15:33:48.378Z,62.97
2022-12-15T15:35:58.277Z,65.10
2022-12-15T15:38:05.645Z,64.53
2022-12-15T15:40:12.249Z,66.22
2022-12-15T15:42:14.001Z,62.10
2022-12-15T15:44:15.944Z,61.47
2022-12-15T15:46:21.716Z,68.85
2022-12-15T15:48:32.189Z,67.72
2022-12-15T15:50:34.338Z,67.00
2022-12-15T15:52:36.192Z,69.20
2022-12-15T15:54:38.546Z,67.43
2022-12-15T15:56:41.606Z,64.82
2022-12-15T15:58:43.881Z,62.13
2022-12-15T16:00:45.750Z,69.72
2022-12-15T16:02:47.868Z,50.58
2022-12-15T16:04:49.728Z,65.75
2022-12-15T16:06:52.635Z,69.57
2022-12-15T16:08:54.927Z,68.85
2022-12-15T16:10:56.793Z,72.13
2022-12-15T16:13:01.798Z,73.15
2022-12-15T16:15:16.321Z,69.78
2022-12-15T16:17:18.754Z,76.90
2022-12-15T16:19:20.573Z,68.25
2022-12-15T16:21:25.843Z,70.05
2022-12-15T16:23:29.354Z,79.95
2022-12-15T16:25:50.541Z,79.30
2022-12-15T16:27:52.664Z,76.07
2022-12-15T16:29:54.391Z,60.50
2022-12-15T16:31:56.145Z,76.50
2022-12-15T16:33:58.509Z,79.65
2022-12-15T16:36:00.252Z,74.38
2022-12-15T16:38:05.095Z,73.23
2022-12-15T16:40:21.637Z,75.85
2022-12-15T16:42:23.354Z,80.65
2022-12-15T16:44:27.139Z,72.82
2022-12-15T16:46:28.944Z,72.30
2022-12-15T16:48:31.173Z,73.88
2022-12-15T16:54:38.079Z,75.38
2022-12-15T16:56:39.840Z,74.38
2022-12-15T16:58:41.622Z,75.35
2022-12-15T17:00:44.813Z,87.18
2022-12-15T17:02:47.129Z,78.00
2022-12-15T17:06:51.869Z,76.88
2022-12-15T17:08:56.525Z,80.60
2022-12-15T17:10:58.480Z,76.50
2022-12-15T17:13:05.789Z,71.88
2022-12-15T17:15:26.253Z,81.18
2022-12-15T17:17:30.146Z,72.95
2022-12-15T17:19:31.841Z,73.38
2022-12-15T17:21:37.082Z,74.97
2022-12-15T17:23:41.037Z,77.68
2022-12-15T17:28:40.682Z,76.78
2022-12-15T17:30:42.682Z,73.50
2022-12-15T17:32:45.687Z,73.13
2022-12-15T17:34:47.581Z,85.25
2022-12-15T17:36:49.387Z,79.40
2022-12-15T17:39:01.661Z,77.85
2022-12-15T17:41:03.486Z,81.32
2022-12-15T17:43:14.902Z,80.43
2022-12-15T17:45:18.321Z,80.30
2022-12-15T17:47:20.172Z,79.00
2022-12-15T17:49:22.064Z,84.72
2022-12-15T17:51:23.769Z,77.78
2022-12-15T17:53:26.104Z,87.72
2022-12-15T17:55:34.868Z,83.15
2022-12-15T17:57:37.400Z,81.78
2022-12-15T17:59:39.262Z,87.28
2022-12-15T18:01:43.005Z,83.53
2022-12-15T18:03:45.030Z,85.82
2022-12-15T18:05:48.674Z,87.90
2022-12-15T18:07:53.648Z,89.32
2022-12-15T18:09:55.434Z,82.38
2022-12-15T18:11:57.242Z,91.55
2022-12-15T18:13:59.038Z,88.38
2022-12-15T18:16:04.089Z,91.50
2022-12-15T18:18:06.431Z,85.18
2022-12-15T18:20:08.703Z,97.93
2022-12-15T18:22:18.691Z,91.65
2022-12-15T18:24:21.662Z,91.53
2022-12-15T18:26:23.726Z,93.78
2022-12-15T18:28:31.367Z,98.55
2022-12-15T18:30:33.109Z,92.70
2022-12-15T18:32:40.006Z,96.53
2022-12-15T18:34:41.787Z,88.82
2022-12-15T18:36:44.238Z,89.57
2022-12-15T18:38:46.099Z,88.25
2022-12-15T18:40:52.757Z,85.93
2022-12-15T18:42:54.698Z,82.53
2022-12-15T18:44:58.713Z,85.93
2022-12-15T18:47:00.520Z,87.82
2022-12-15T18:49:02.295Z,88.43
2022-12-15T18:51:15.699Z,87.07
2022-12-15T18:53:24.017Z,86.88
2022-12-15T18:55:28.798Z,87.53
2022-12-15T18:57:38.224Z,92.22
2022-12-15T18:59:40.135Z,87.85
2022-12-15T19:01:43.604Z,57.53
2022-12-15T19:03:45.490Z,92.70
2022-12-15T19:05:48.419Z,100.80
2022-12-15T19:07:50.129Z,92.45
2022-12-15T19:09:52.403Z,103.25
2022-12-15T19:12:13.005Z,110.78
2022-12-15T19:14:34.846Z,105.22
2022-12-15T19:16:55.357Z,91.68
2022-12-15T19:19:17.451Z,91.32
2022-12-15T19:22:03.370Z,68.17
2022-12-15T19:24:07.558Z,85.20
2022-12-15T19:26:11.413Z,90.28
2022-12-15T19:28:20.869Z,88.40
2022-12-15T19:30:22.729Z,92.90
2022-12-15T19:32:24.617Z,87.85
2022-12-15T19:34:26.357Z,83.25
2022-12-15T19:36:32.235Z,83.75
2022-12-15T19:38:36.774Z,88.18
2022-12-15T19:40:38.668Z,87.50
2022-12-15T19:42:40.926Z,85.32
2022-12-15T19:44:42.641Z,82.78
2022-12-15T19:46:44.701Z,85.43
2022-12-15T19:48:47.298Z,83.93
2022-12-15T19:53:02.016Z,80.70
2022-12-15T19:55:03.953Z,83.47
2022-12-15T19:57:13.336Z,96.18
2022-12-15T19:59:23.542Z,92.68
2022-12-15T20:01:25.436Z,86.97
2022-12-15T20:03:28.722Z,87.78
2022-12-15T20:05:30.616Z,94.45
2022-12-15T20:07:32.453Z,89.93
2022-12-15T20:09:34.699Z,95.55
2022-12-15T20:11:36.474Z,87.00
2022-12-15T20:13:38.281Z,91.05
2022-12-15T20:15:40.256Z,74.43
2022-12-15T20:17:42.066Z,90.00
2022-12-15T20:19:44.225Z,81.22
2022-12-15T20:21:46.079Z,90.60
2022-12-15T20:23:56.723Z,82.32
2022-12-15T20:25:58.597Z,82.07
2022-12-15T20:28:01.390Z,84.15
2022-12-15T20:30:04.011Z,79.75
2022-12-15T20:32:17.799Z,72.70
2022-12-15T20:34:19.903Z,69.18
2022-12-15T20:36:28.119Z,76.25
2022-12-15T20:38:32.192Z,78.53
2022-12-15T20:40:34.220Z,78.28
2022-12-15T20:42:35.977Z,71.43
2022-12-15T20:44:37.715Z,67.20
2022-12-15T20:46:40.106Z,66.68
2022-12-15T20:48:43.115Z,63.28
2022-12-15T20:50:49.694Z,64.65
2022-12-15T20:52:52.429Z,68.00
2022-12-15T20:54:56.728Z,64.47
2022-12-15T20:56:58.507Z,60.75
2022-12-15T20:59:00.298Z,58.75
2022-12-15T21:01:02.160Z,58.47
2022-12-15T21:03:19.828Z,57.08
2022-12-15T21:05:24.364Z,52.65
2022-12-15T21:07:26.124Z,54.47
2022-12-15T21:09:27.979Z,51.42
2022-12-15T21:11:32.849Z,49.30
2022-12-15T21:13:35.539Z,53.45
2022-12-15T21:15:37.916Z,49.22
2022-12-15T21:17:41.972Z,48.40
2022-12-15T21:19:44.787Z,50.53
2022-12-15T21:23:50.185Z,43.15
2022-12-15T21:25:52.619Z,51.15
2022-12-15T21:27:55.259Z,44.42
2022-12-15T21:29:57.004Z,48.67
2022-12-15T21:31:58.750Z,46.90
2022-12-15T21:34:00.510Z,42.97
2022-12-15T21:36:02.602Z,47.30
2022-12-15T21:38:05.072Z,43.25
2022-12-15T21:40:07.696Z,42.03
2022-12-15T21:42:16.100Z,44.42
2022-12-15T21:44:18.437Z,43.45
2022-12-15T21:46:27.948Z,41.40
2022-12-15T21:48:48.352Z,42.08
2022-12-15T21:50:50.299Z,45.00
2022-12-15T21:52:53.495Z,41.05
2022-12-15T21:54:56.476Z,38.30
2022-12-15T21:57:02.781Z,41.92
2022-12-15T21:59:12.363Z,39.38
2022-12-15T22:01:19.633Z,38.72
2022-12-15T22:03:21.551Z,38.28
2022-12-15T22:05:30.805Z,36.45
2022-12-15T22:07:32.526Z,43.85
2022-12-15T22:09:34.241Z,34.45
2022-12-15T22:11:36.220Z,31.20
2022-12-15T22:13:39.288Z,34.08
2022-12-15T22:15:41.200Z,36.00
2022-12-15T22:17:44.041Z,35.03
2022-12-15T22:19:45.830Z,33.47
2022-12-15T22:21:47.771Z,32.70
2022-12-15T22:23:50.780Z,33.63
2022-12-15T22:25:55.485Z,34.25
2022-12-15T22:27:57.250Z,31.25
2022-12-15T22:29:58.975Z,36.97
2022-12-15T22:32:01.184Z,33.88
2022-12-15T22:34:11.816Z,31.92
2022-12-15T22:36:13.665Z,29.23
2022-12-15T22:38:16.127Z,30.48
2022-12-15T22:40:17.848Z,34.70
2022-12-15T22:42:19.605Z,35.53
2022-12-15T22:44:37.286Z,32.30
2022-12-15T22:46:39.044Z,30.02
2022-12-15T22:48:43.533Z,30.75
2022-12-15T22:50:45.294Z,35.42
2022-12-15T22:52:47.913Z,34.45
2022-12-15T22:54:49.727Z,30.73
2022-12-15T22:56:58.379Z,36.13
2022-12-15T22:59:05.695Z,35.33
2022-12-15T23:01:08.009Z,30.17
2022-12-15T23:03:11.875Z,32.08
2022-12-15T23:05:17.028Z,31.33
2022-12-15T23:07:19.868Z,34.28
2022-12-15T23:09:21.642Z,31.90
2022-12-15T23:11:39.333Z,31.17
2022-12-15T23:13:41.161Z,29.23
2022-12-15T23:16:01.822Z,26.27
2022-12-15T23:18:03.699Z,31.48
2022-12-15T23:20:05.978Z,28.75
2022-12-15T23:22:07.818Z,35.67
2022-12-15T23:24:09.573Z,33.28
2022-12-15T23:26:12.329Z,28.83
2022-12-15T23:28:14.114Z,28.88
2022-12-15T23:30:15.986Z,30.73
2022-12-15T23:32:17.739Z,30.77
2022-12-15T23:34:19.493Z,28.92
2022-12-15T23:36:21.336Z,28.67
2022-12-15T23:38:23.977Z,31.23
2022-12-15T23:40:25.697Z,32.85
2022-12-15T23:42:27.440Z,33.10
2022-12-15T23:44:30.149Z,28.23
2022-12-15T23:46:32.175Z,31.67
2022-12-15T23:48:39.088Z,34.58
2022-12-15T23:50:40.883Z,32.55
2022-12-15T23:52:42.618Z,30.52
2022-12-15T23:54:44.842Z,35.30
2022-12-15T23:56:46.624Z,34.15
2022-12-15T23:58:55.144Z,31.67
